Time;durP1;ratioP1;P1;durP2;ratioP2;P2;SDS_P1;SDS_P2;PMS_P1;PMS_P2;Temp;Humidity;BMP_temperature;BMP_pressure;BME280_temperature;BME280_humidity;BME280_pressure;Samples;Min_cycle;Max_cycle;Signal;HPM_P1;HPM_P2
2024/01/20 00:00:09;;;;;;;0.40;0.40;;;;;;;;;;5066993;28;20705;-66
2024/01/20 00:02:34;;;;;;;0.40;0.40;;;;;;;;;;5055728;28;20194;-66
2024/01/20 00:04:59;;;;;;;0.50;0.50;;;;;;;;;;5064766;28;20168;-68
2024/01/20 00:07:25;;;;;;;0.80;0.80;;;;;;;;;;5045578;28;20285;-67
2024/01/20 00:09:50;;;;;;;0.73;0.73;;;;;;;;;;5051514;28;20199;-67
2024/01/20 00:12:15;;;;;;;0.50;0.50;;;;;;;;;;5051416;28;20186;-67
2024/01/20 00:14:41;;;;;;;1.57;1.47;;;;;;;;;;5050886;28;20175;-66
2024/01/20 00:17:06;;;;;;;0.60;0.60;;;;;;;;;;5051412;28;20316;-67
2024/01/20 00:19:31;;;;;;;1.00;1.00;;;;;;;;;;5051335;28;20162;-67
2024/01/20 00:21:56;;;;;;;2.07;1.90;;;;;;;;;;5051261;28;20272;-66
2024/01/20 00:24:22;;;;;;;0.50;0.50;;;;;;;;;;5051309;28;20312;-67
2024/01/20 00:26:47;;;;;;;0.50;0.50;;;;;;;;;;5051220;28;21109;-66
2024/01/20 00:29:12;;;;;;;0.53;0.53;;;;;;;;;;5051028;28;20175;-67
2024/01/20 00:31:38;;;;;;;0.50;0.50;;;;;;;;;;5051096;28;20276;-66
2024/01/20 00:34:03;;;;;;;0.50;0.50;;;;;;;;;;5050707;28;20178;-67
2024/01/20 00:36:28;;;;;;;0.50;0.50;;;;;;;;;;5051155;28;20174;-67
2024/01/20 00:38:53;;;;;;;0.50;0.50;;;;;;;;;;5050761;28;20592;-67
2024/01/20 00:41:19;;;;;;;0.50;0.50;;;;;;;;;;5050391;28;20249;-67
2024/01/20 00:43:44;;;;;;;0.50;0.50;;;;;;;;;;5050495;28;20287;-67
2024/01/20 00:46:09;;;;;;;4.73;2.77;;;;;;;;;;5049955;28;20151;-67
2024/01/20 00:48:35;;;;;;;0.40;0.40;;;;;;;;;;5049485;28;20167;-67
2024/01/20 00:51:00;;;;;;;1.10;1.07;;;;;;;;;;5050076;28;20170;-67
2024/01/20 00:53:27;;;;;;;0.57;0.57;;;;;;;;;;5048656;28;20190;-67
2024/01/20 00:55:52;;;;;;;0.50;0.50;;;;;;;;;;5050837;28;20171;-66
2024/01/20 00:58:17;;;;;;;1.03;0.97;;;;;;;;;;5050874;28;20189;-66
2024/01/20 01:00:43;;;;;;;0.50;0.50;;;;;;;;;;5050641;28;20167;-67
2024/01/20 01:03:08;;;;;;;0.70;0.70;;;;;;;;;;5050293;28;20242;-66
2024/01/20 01:05:33;;;;;;;0.60;0.60;;;;;;;;;;5050513;28;20171;-66
2024/01/20 01:07:59;;;;;;;0.50;0.50;;;;;;;;;;5050492;28;20246;-66
2024/01/20 01:10:24;;;;;;;0.50;0.50;;;;;;;;;;5050388;28;20174;-66
2024/01/20 01:12:49;;;;;;;0.40;0.40;;;;;;;;;;5050066;28;20179;-66
2024/01/20 01:15:15;;;;;;;0.40;0.40;;;;;;;;;;5050160;28;20162;-66
2024/01/20 01:17:40;;;;;;;0.50;0.50;;;;;;;;;;5050097;28;20175;-67
2024/01/20 01:20:06;;;;;;;0.60;0.60;;;;;;;;;;5050430;28;20174;-66
2024/01/20 01:22:31;;;;;;;0.60;0.60;;;;;;;;;;5050201;28;20585;-66
2024/01/20 01:24:56;;;;;;;0.40;0.40;;;;;;;;;;5050219;28;20147;-66
2024/01/20 01:27:22;;;;;;;2.60;1.07;;;;;;;;;;5050000;28;20175;-67
2024/01/20 01:29:47;;;;;;;0.50;0.50;;;;;;;;;;5050443;28;20325;-67
2024/01/20 01:32:12;;;;;;;0.50;0.50;;;;;;;;;;5050257;28;20784;-67
2024/01/20 01:34:37;;;;;;;1.13;0.90;;;;;;;;;;5049561;28;20652;-68
2024/01/20 01:37:03;;;;;;;0.60;0.60;;;;;;;;;;5050037;28;20175;-67
2024/01/20 01:39:28;;;;;;;0.50;0.50;;;;;;;;;;5049772;28;20167;-67
2024/01/20 01:41:53;;;;;;;0.50;0.50;;;;;;;;;;5049935;28;20320;-66
2024/01/20 01:44:19;;;;;;;1.43;1.43;;;;;;;;;;5049303;28;20196;-66
2024/01/20 01:46:44;;;;;;;0.60;0.60;;;;;;;;;;5049990;28;20197;-66
2024/01/20 01:49:10;;;;;;;0.67;0.67;;;;;;;;;;5050017;28;20213;-66
2024/01/20 01:51:36;;;;;;;0.60;0.60;;;;;;;;;;5050017;28;20167;-66
2024/01/20 01:54:02;;;;;;;0.50;0.50;;;;;;;;;;5049919;28;20248;-66
2024/01/20 01:56:28;;;;;;;0.50;0.50;;;;;;;;;;5049814;28;20167;-65
2024/01/20 01:58:54;;;;;;;0.50;0.50;;;;;;;;;;5049772;28;20177;-66
2024/01/20 02:01:20;;;;;;;0.50;0.50;;;;;;;;;;5049766;28;20182;-66
2024/01/20 02:03:45;;;;;;;0.50;0.50;;;;;;;;;;5049843;28;20233;-66
2024/01/20 02:06:10;;;;;;;0.50;0.50;;;;;;;;;;5049782;28;20216;-66
2024/01/20 02:08:38;;;;;;;0.47;0.47;;;;;;;;;;5049813;28;20197;-66
2024/01/20 02:11:03;;;;;;;0.63;0.63;;;;;;;;;;5049675;28;20187;-66
2024/01/20 02:13:29;;;;;;;0.50;0.50;;;;;;;;;;5049623;28;20201;-66
2024/01/20 02:15:54;;;;;;;0.80;0.80;;;;;;;;;;5049463;28;20254;-66
2024/01/20 02:18:23;;;;;;;0.43;0.43;;;;;;;;;;5049660;28;20171;-66
2024/01/20 02:20:48;;;;;;;0.50;0.50;;;;;;;;;;5049757;28;20256;-66
2024/01/20 02:23:13;;;;;;;0.50;0.50;;;;;;;;;;5049753;28;20282;-66
2024/01/20 02:25:39;;;;;;;0.77;0.77;;;;;;;;;;5049678;28;20254;-66
2024/01/20 02:28:04;;;;;;;0.60;0.60;;;;;;;;;;5049681;28;20592;-66
2024/01/20 02:30:29;;;;;;;2.27;2.17;;;;;;;;;;5049466;28;20250;-66
2024/01/20 02:32:55;;;;;;;0.50;0.50;;;;;;;;;;5049646;28;20168;-66
2024/01/20 02:35:20;;;;;;;1.90;1.50;;;;;;;;;;5049490;28;20163;-66
2024/01/20 02:37:45;;;;;;;0.50;0.50;;;;;;;;;;5049477;28;20194;-66
2024/01/20 02:40:11;;;;;;;0.40;0.40;;;;;;;;;;5049345;28;20254;-66
2024/01/20 02:42:36;;;;;;;0.40;0.40;;;;;;;;;;5049576;28;20199;-66
2024/01/20 02:45:01;;;;;;;0.40;0.40;;;;;;;;;;5049536;28;20210;-66
2024/01/20 02:47:27;;;;;;;0.60;0.60;;;;;;;;;;5049431;28;20262;-66
2024/01/20 02:49:52;;;;;;;0.50;0.50;;;;;;;;;;5049511;28;20172;-66
2024/01/20 02:52:17;;;;;;;0.50;0.50;;;;;;;;;;5049230;28;20595;-65
2024/01/20 02:54:43;;;;;;;0.50;0.50;;;;;;;;;;5049194;28;20175;-65
2024/01/20 02:57:08;;;;;;;0.60;0.60;;;;;;;;;;5052289;28;20171;-66
2024/01/20 02:59:33;;;;;;;0.50;0.50;;;;;;;;;;5052906;28;20167;-66
2024/01/20 03:01:59;;;;;;;0.50;0.50;;;;;;;;;;5053012;28;20191;-66
2024/01/20 03:04:24;;;;;;;0.50;0.50;;;;;;;;;;5052806;28;20171;-66
2024/01/20 03:06:50;;;;;;;0.50;0.50;;;;;;;;;;5052723;28;20690;-66
2024/01/20 03:09:15;;;;;;;0.50;0.50;;;;;;;;;;5052786;28;20190;-66
2024/01/20 03:11:41;;;;;;;0.50;0.50;;;;;;;;;;5052682;28;20189;-66
2024/01/20 03:14:07;;;;;;;0.60;0.60;;;;;;;;;;5052808;28;20274;-66
2024/01/20 03:16:32;;;;;;;0.50;0.50;;;;;;;;;;5052897;28;20961;-66
2024/01/20 03:18:57;;;;;;;0.50;0.50;;;;;;;;;;5052781;28;20166;-66
2024/01/20 03:21:23;;;;;;;0.50;0.50;;;;;;;;;;5052735;28;20225;-66
2024/01/20 03:23:48;;;;;;;0.47;0.47;;;;;;;;;;5052517;28;20577;-66
2024/01/20 03:26:13;;;;;;;0.60;0.60;;;;;;;;;;5052445;28;20209;-66
2024/01/20 03:28:40;;;;;;;0.57;0.57;;;;;;;;;;5052410;28;20159;-66
2024/01/20 03:31:06;;;;;;;0.50;0.50;;;;;;;;;;5052417;28;20171;-66
2024/01/20 03:33:31;;;;;;;0.60;0.60;;;;;;;;;;5052313;28;20163;-66
2024/01/20 03:35:56;;;;;;;0.50;0.50;;;;;;;;;;5052244;28;20266;-66
2024/01/20 03:38:21;;;;;;;0.60;0.60;;;;;;;;;;5052100;28;20171;-66
2024/01/20 03:40:47;;;;;;;0.50;0.50;;;;;;;;;;5051902;28;20599;-66
2024/01/20 03:43:12;;;;;;;0.50;0.50;;;;;;;;;;5052079;28;20245;-66
2024/01/20 03:45:38;;;;;;;0.60;0.60;;;;;;;;;;5052088;28;20187;-66
2024/01/20 03:48:04;;;;;;;0.97;0.97;;;;;;;;;;5052258;28;20175;-66
2024/01/20 03:50:29;;;;;;;3.20;2.40;;;;;;;;;;5052210;28;20178;-66
2024/01/20 03:52:54;;;;;;;0.47;0.47;;;;;;;;;;5052041;28;20171;-67
2024/01/20 03:55:20;;;;;;;10.37;9.43;;;;;;;;;;5051725;28;20167;-66
2024/01/20 03:57:45;;;;;;;0.43;0.43;;;;;;;;;;5051733;28;20180;-66
2024/01/20 04:00:10;;;;;;;0.63;0.63;;;;;;;;;;5051711;28;20226;-66
2024/01/20 04:02:36;;;;;;;0.40;0.40;;;;;;;;;;5051677;28;20198;-66
2024/01/20 04:05:01;;;;;;;0.50;0.50;;;;;;;;;;5051532;28;20617;-66
2024/01/20 04:07:26;;;;;;;0.60;0.60;;;;;;;;;;5051108;28;20191;-66
2024/01/20 04:09:51;;;;;;;0.60;0.60;;;;;;;;;;5051619;28;20198;-66
2024/01/20 04:12:18;;;;;;;0.50;0.50;;;;;;;;;;5051564;28;20338;-67
2024/01/20 04:14:43;;;;;;;0.50;0.50;;;;;;;;;;5051454;28;20528;-66
2024/01/20 04:17:09;;;;;;;0.60;0.60;;;;;;;;;;5051530;28;20262;-66
2024/01/20 04:19:34;;;;;;;0.50;0.50;;;;;;;;;;5051694;28;20258;-66
2024/01/20 04:21:59;;;;;;;0.50;0.50;;;;;;;;;;5051702;28;20300;-66
2024/01/20 04:24:25;;;;;;;0.60;0.60;;;;;;;;;;5051389;28;20182;-66
2024/01/20 04:26:50;;;;;;;0.50;0.50;;;;;;;;;;5051424;28;20250;-66
2024/01/20 04:29:15;;;;;;;0.70;0.70;;;;;;;;;;5051135;28;20159;-66
2024/01/20 04:31:40;;;;;;;0.60;0.60;;;;;;;;;;5051198;28;20167;-66
2024/01/20 04:34:06;;;;;;;1.13;1.13;;;;;;;;;;5051052;28;20185;-66
2024/01/20 04:36:31;;;;;;;0.40;0.40;;;;;;;;;;5051176;28;20160;-66
2024/01/20 04:38:56;;;;;;;0.50;0.50;;;;;;;;;;5051033;28;20163;-66
2024/01/20 04:41:22;;;;;;;0.63;0.63;;;;;;;;;;5050784;28;20226;-66
2024/01/20 04:43:47;;;;;;;0.60;0.60;;;;;;;;;;5050834;28;20199;-66
2024/01/20 04:46:12;;;;;;;0.50;0.50;;;;;;;;;;5050896;28;20155;-66
2024/01/20 04:48:37;;;;;;;0.50;0.50;;;;;;;;;;5050931;28;20556;-66
2024/01/20 04:51:03;;;;;;;0.60;0.60;;;;;;;;;;5051110;28;20213;-66
2024/01/20 04:53:28;;;;;;;0.83;0.83;;;;;;;;;;5050780;28;20244;-66
2024/01/20 04:55:53;;;;;;;0.50;0.50;;;;;;;;;;5050707;28;20195;-66
2024/01/20 04:58:19;;;;;;;0.40;0.40;;;;;;;;;;5050536;28;20171;-66
2024/01/20 05:00:44;;;;;;;0.40;0.40;;;;;;;;;;5050596;28;20544;-66
2024/01/20 05:03:10;;;;;;;1.10;1.10;;;;;;;;;;5050340;28;20197;-67
2024/01/20 05:05:35;;;;;;;0.50;0.50;;;;;;;;;;5050284;28;20726;-66
2024/01/20 05:08:00;;;;;;;0.80;0.80;;;;;;;;;;5050214;28;20551;-66
2024/01/20 05:10:26;;;;;;;0.87;0.87;;;;;;;;;;5050362;28;20250;-66
2024/01/20 05:12:51;;;;;;;0.50;0.50;;;;;;;;;;5050319;28;20175;-66
2024/01/20 05:15:16;;;;;;;0.50;0.50;;;;;;;;;;5050321;28;20753;-66
2024/01/20 05:17:42;;;;;;;0.50;0.50;;;;;;;;;;5050159;28;20202;-66
2024/01/20 05:20:07;;;;;;;0.50;0.50;;;;;;;;;;5049782;28;20215;-66
2024/01/20 05:22:33;;;;;;;0.60;0.60;;;;;;;;;;5050592;28;20199;-66
2024/01/20 05:24:58;;;;;;;0.50;0.50;;;;;;;;;;5050182;28;20167;-66
2024/01/20 05:27:23;;;;;;;0.50;0.50;;;;;;;;;;5048938;28;20237;-66
2024/01/20 05:29:49;;;;;;;0.50;0.50;;;;;;;;;;5049959;28;20253;-66
2024/01/20 05:32:15;;;;;;;0.60;0.60;;;;;;;;;;5050091;28;20216;-66
2024/01/20 05:34:40;;;;;;;0.73;0.73;;;;;;;;;;5049890;28;20216;-66
2024/01/20 05:37:05;;;;;;;1.83;1.73;;;;;;;;;;5049823;28;20195;-66
2024/01/20 05:39:30;;;;;;;1.73;1.63;;;;;;;;;;5049810;28;20557;-66
2024/01/20 05:41:56;;;;;;;0.70;0.70;;;;;;;;;;5049914;28;20243;-66
2024/01/20 05:44:21;;;;;;;0.50;0.50;;;;;;;;;;5049932;28;20705;-66
2024/01/20 05:46:46;;;;;;;2.73;2.63;;;;;;;;;;5049941;28;20167;-66
2024/01/20 05:49:13;;;;;;;0.60;0.60;;;;;;;;;;5049834;28;20166;-66
2024/01/20 05:51:38;;;;;;;0.50;0.50;;;;;;;;;;5049716;28;20246;-66
2024/01/20 05:54:04;;;;;;;0.50;0.50;;;;;;;;;;5050112;28;20254;-66
2024/01/20 05:56:29;;;;;;;0.90;0.90;;;;;;;;;;5049788;28;20171;-66
2024/01/20 05:58:55;;;;;;;0.50;0.50;;;;;;;;;;5049552;28;20220;-66
2024/01/20 06:01:20;;;;;;;0.60;0.60;;;;;;;;;;5049640;28;20228;-66
2024/01/20 06:03:45;;;;;;;3.73;1.93;;;;;;;;;;5046962;28;20269;-66
2024/01/20 06:06:11;;;;;;;0.50;0.50;;;;;;;;;;5049541;28;20156;-66
2024/01/20 06:08:36;;;;;;;1.17;1.17;;;;;;;;;;5049556;28;20163;-66
2024/01/20 06:11:02;;;;;;;0.60;0.60;;;;;;;;;;5049545;28;20245;-66
2024/01/20 06:13:29;;;;;;;1.17;0.80;;;;;;;;;;5049343;28;20170;-66
2024/01/20 06:15:55;;;;;;;0.90;0.90;;;;;;;;;;5049331;28;20187;-66
2024/01/20 06:18:20;;;;;;;1.90;1.57;;;;;;;;;;5049638;28;20163;-66
2024/01/20 06:20:45;;;;;;;1.20;1.20;;;;;;;;;;5049640;28;20562;-66
2024/01/20 06:23:10;;;;;;;2.63;1.27;;;;;;;;;;5049478;28;20217;-66
2024/01/20 06:25:36;;;;;;;1.00;1.00;;;;;;;;;;5049518;28;20246;-66
2024/01/20 06:28:03;;;;;;;0.90;0.90;;;;;;;;;;5049489;28;20167;-67
2024/01/20 06:30:28;;;;;;;0.60;0.60;;;;;;;;;;5049520;28;20201;-66
2024/01/20 06:32:53;;;;;;;1.77;1.67;;;;;;;;;;5053710;28;20166;-66
2024/01/20 06:35:19;;;;;;;3.60;1.60;;;;;;;;;;5053474;28;20199;-66
2024/01/20 06:37:44;;;;;;;0.80;0.80;;;;;;;;;;5053227;28;20205;-66
2024/01/20 06:40:10;;;;;;;0.60;0.60;;;;;;;;;;5053001;28;20302;-66
2024/01/20 06:42:35;;;;;;;1.13;1.13;;;;;;;;;;5053160;28;20187;-66
2024/01/20 06:45:00;;;;;;;2.30;2.20;;;;;;;;;;5053041;28;20155;-66
2024/01/20 06:47:25;;;;;;;0.60;0.60;;;;;;;;;;5053140;28;20212;-66
2024/01/20 06:49:53;;;;;;;1.07;1.07;;;;;;;;;;5051800;28;20636;-66
2024/01/20 06:52:18;;;;;;;0.60;0.60;;;;;;;;;;5053068;28;20202;-66
2024/01/20 06:54:44;;;;;;;0.90;0.90;;;;;;;;;;5053058;28;20274;-66
2024/01/20 06:57:09;;;;;;;0.80;0.80;;;;;;;;;;5051662;28;20564;-66
2024/01/20 06:59:36;;;;;;;0.60;0.60;;;;;;;;;;5053051;28;20174;-66
2024/01/20 07:02:01;;;;;;;0.80;0.80;;;;;;;;;;5052919;28;20178;-66
2024/01/20 07:04:27;;;;;;;0.70;0.70;;;;;;;;;;5053077;28;20159;-66
2024/01/20 07:06:52;;;;;;;0.40;0.40;;;;;;;;;;5053038;28;20194;-66
2024/01/20 07:09:17;;;;;;;0.50;0.50;;;;;;;;;;5053050;28;20270;-66
2024/01/20 07:11:42;;;;;;;0.50;0.50;;;;;;;;;;5052909;28;20197;-66
2024/01/20 07:14:08;;;;;;;0.50;0.50;;;;;;;;;;5052856;28;20166;-66
2024/01/20 07:16:33;;;;;;;0.50;0.50;;;;;;;;;;5052693;28;20568;-66
2024/01/20 07:18:58;;;;;;;8.50;5.40;;;;;;;;;;5052761;28;20163;-66
2024/01/20 07:21:24;;;;;;;0.50;0.50;;;;;;;;;;5052653;28;20171;-66
2024/01/20 07:23:49;;;;;;;0.60;0.60;;;;;;;;;;5052516;28;20679;-66
2024/01/20 07:26:15;;;;;;;1.90;1.80;;;;;;;;;;5052584;28;20214;-66
2024/01/20 07:28:40;;;;;;;1.80;1.00;;;;;;;;;;5052615;28;20552;-66
2024/01/20 07:31:06;;;;;;;1.17;1.17;;;;;;;;;;5052376;28;20163;-66
2024/01/20 07:33:33;;;;;;;0.40;0.40;;;;;;;;;;5052563;28;20254;-66
2024/01/20 07:35:58;;;;;;;0.57;0.57;;;;;;;;;;5051689;28;20242;-66
2024/01/20 07:38:24;;;;;;;1.60;1.57;;;;;;;;;;5051049;28;20254;-66
2024/01/20 07:40:53;;;;;;;0.70;0.70;;;;;;;;;;5051463;28;20219;-66
2024/01/20 07:43:18;;;;;;;0.53;0.53;;;;;;;;;;5050703;28;20631;-66
2024/01/20 07:45:44;;;;;;;1.17;1.17;;;;;;;;;;5052604;28;20205;-66
2024/01/20 07:48:10;;;;;;;0.70;0.70;;;;;;;;;;5052963;28;20167;-66
2024/01/20 07:50:35;;;;;;;0.60;0.60;;;;;;;;;;5052941;28;20929;-66
2024/01/20 07:53:00;;;;;;;0.50;0.50;;;;;;;;;;5052683;28;20179;-66
2024/01/20 07:55:26;;;;;;;0.70;0.70;;;;;;;;;;5052577;28;20155;-66
2024/01/20 07:57:51;;;;;;;0.50;0.50;;;;;;;;;;5052601;28;20535;-66
2024/01/20 08:00:16;;;;;;;1.73;1.63;;;;;;;;;;5052436;28;20186;-66
2024/01/20 08:02:42;;;;;;;0.40;0.40;;;;;;;;;;5052342;28;20183;-66
2024/01/20 08:05:07;;;;;;;1.67;1.57;;;;;;;;;;5052335;28;20679;-66
2024/01/20 08:07:33;;;;;;;0.50;0.50;;;;;;;;;;5052372;28;20163;-66
2024/01/20 08:09:59;;;;;;;0.97;0.97;;;;;;;;;;5052238;28;20167;-66
2024/01/20 08:12:24;;;;;;;0.53;0.53;;;;;;;;;;5052192;28;20175;-66
2024/01/20 08:14:49;;;;;;;0.90;0.90;;;;;;;;;;5052107;28;20247;-66
2024/01/20 08:17:14;;;;;;;0.50;0.50;;;;;;;;;;5052150;28;20594;-66
2024/01/20 08:19:40;;;;;;;0.43;0.43;;;;;;;;;;5052277;28;20175;-66
2024/01/20 08:22:06;;;;;;;0.97;0.97;;;;;;;;;;5052081;28;20156;-66
2024/01/20 08:24:31;;;;;;;1.47;1.37;;;;;;;;;;5052045;28;20237;-66
2024/01/20 08:26:56;;;;;;;5.43;3.60;;;;;;;;;;5052001;28;20248;-66
2024/01/20 08:29:22;;;;;;;1.97;1.87;;;;;;;;;;5051942;28;20251;-66
2024/01/20 08:31:47;;;;;;;0.70;0.70;;;;;;;;;;5051918;28;20159;-66
2024/01/20 08:34:13;;;;;;;0.53;0.53;;;;;;;;;;5051854;28;20163;-66
2024/01/20 08:36:38;;;;;;;3.00;2.80;;;;;;;;;;5051839;28;20164;-66
2024/01/20 08:39:03;;;;;;;0.50;0.50;;;;;;;;;;5051813;28;20195;-67
2024/01/20 08:41:28;;;;;;;0.93;0.93;;;;;;;;;;5051575;28;20284;-66
2024/01/20 08:43:54;;;;;;;0.50;0.50;;;;;;;;;;5051552;28;20194;-66
2024/01/20 08:46:19;;;;;;;1.00;1.00;;;;;;;;;;5051688;28;20608;-66
2024/01/20 08:48:44;;;;;;;0.50;0.50;;;;;;;;;;5051529;28;20194;-66
2024/01/20 08:51:10;;;;;;;1.03;1.03;;;;;;;;;;5051499;28;20159;-65
2024/01/20 08:53:35;;;;;;;0.60;0.60;;;;;;;;;;5051543;28;20996;-65
2024/01/20 08:56:01;;;;;;;0.50;0.50;;;;;;;;;;5051490;28;20640;-65
2024/01/20 08:58:26;;;;;;;3.47;0.77;;;;;;;;;;5051321;28;20162;-65
2024/01/20 09:00:51;;;;;;;1.33;1.23;;;;;;;;;;5051345;28;20159;-65
2024/01/20 09:03:17;;;;;;;0.40;0.40;;;;;;;;;;5051080;28;20202;-67
2024/01/20 09:05:42;;;;;;;1.00;1.00;;;;;;;;;;5051217;28;20254;-65
2024/01/20 09:08:09;;;;;;;6.43;1.00;;;;;;;;;;5051212;28;20202;-65
2024/01/20 09:10:36;;;;;;;0.50;0.50;;;;;;;;;;5050764;28;20254;-65
2024/01/20 09:13:02;;;;;;;1.03;1.00;;;;;;;;;;5051091;28;20179;-65
2024/01/20 09:15:28;;;;;;;0.70;0.70;;;;;;;;;;5050980;28;20163;-65
2024/01/20 09:17:54;;;;;;;0.50;0.50;;;;;;;;;;5051003;28;20167;-65
2024/01/20 09:20:19;;;;;;;0.50;0.50;;;;;;;;;;5050959;28;20163;-65
2024/01/20 09:22:45;;;;;;;2.33;1.53;;;;;;;;;;5050868;28;20191;-64
2024/01/20 09:25:11;;;;;;;4.90;1.57;;;;;;;;;;5050858;28;20163;-64
2024/01/20 09:27:36;;;;;;;0.50;0.50;;;;;;;;;;5049546;28;20167;-67
2024/01/20 09:30:01;;;;;;;0.50;0.50;;;;;;;;;;5050636;28;20579;-64
2024/01/20 09:32:30;;;;;;;0.60;0.60;;;;;;;;;;5050452;28;20194;-65
2024/01/20 09:34:55;;;;;;;1.00;1.00;;;;;;;;;;5049995;28;20197;-65
2024/01/20 09:37:20;;;;;;;0.60;0.60;;;;;;;;;;5050217;28;20649;-65
2024/01/20 09:39:47;;;;;;;5.90;5.60;;;;;;;;;;5049827;28;20250;-67
2024/01/20 09:42:12;;;;;;;0.53;0.53;;;;;;;;;;5050474;28;20170;-65
2024/01/20 09:44:39;;;;;;;0.50;0.50;;;;;;;;;;5049603;28;20163;-64
2024/01/20 09:47:07;;;;;;;0.97;0.97;;;;;;;;;;5048572;28;20182;-65
2024/01/20 09:49:32;;;;;;;1.27;0.77;;;;;;;;;;5049045;28;20171;-67
2024/01/20 09:52:03;;;;;;;1.03;1.03;;;;;;;;;;5050147;28;20204;-68
2024/01/20 09:54:29;;;;;;;0.50;0.50;;;;;;;;;;5049081;28;20557;-67
2024/01/20 09:56:54;;;;;;;2.20;1.27;;;;;;;;;;5050296;28;20169;-65
2024/01/20 09:59:20;;;;;;;0.50;0.50;;;;;;;;;;5050280;28;20611;-67
2024/01/20 10:01:46;;;;;;;0.87;0.87;;;;;;;;;;5050380;28;20163;-64
2024/01/20 10:04:13;;;;;;;0.40;0.40;;;;;;;;;;5049889;28;20617;-66
2024/01/20 10:06:39;;;;;;;20.90;14.77;;;;;;;;;;5049711;28;20201;-67
2024/01/20 10:09:05;;;;;;;2.23;2.10;;;;;;;;;;5050298;28;20577;-67
2024/01/20 10:11:30;;;;;;;0.70;0.70;;;;;;;;;;5050212;28;20167;-67
2024/01/20 10:13:56;;;;;;;0.50;0.50;;;;;;;;;;5050232;28;20163;-67
2024/01/20 10:16:22;;;;;;;0.83;0.83;;;;;;;;;;5050092;28;20228;-67
2024/01/20 10:18:48;;;;;;;0.77;0.77;;;;;;;;;;5050113;28;20249;-67
2024/01/20 10:21:13;;;;;;;1.53;1.43;;;;;;;;;;5050292;28;20168;-67
2024/01/20 10:23:39;;;;;;;0.50;0.50;;;;;;;;;;5050114;28;20217;-67
2024/01/20 10:26:09;;;;;;;0.47;0.47;;;;;;;;;;5050093;28;20532;-67
2024/01/20 10:28:34;;;;;;;0.90;0.90;;;;;;;;;;5050072;28;20162;-67
2024/01/20 10:31:06;;;;;;;1.20;1.20;;;;;;;;;;5050071;28;20170;-68
2024/01/20 10:33:32;;;;;;;1.70;1.60;;;;;;;;;;5050068;28;20159;-67
2024/01/20 10:36:00;;;;;;;0.90;0.90;;;;;;;;;;5049961;28;20163;-66
2024/01/20 10:38:27;;;;;;;2.00;1.70;;;;;;;;;;5049849;28;20167;-67
2024/01/20 10:40:54;;;;;;;1.33;1.33;;;;;;;;;;5049654;28;20223;-68
2024/01/20 10:43:20;;;;;;;0.70;0.70;;;;;;;;;;5049807;28;20195;-68
2024/01/20 10:45:46;;;;;;;0.97;0.97;;;;;;;;;;5050095;28;20159;-67
2024/01/20 10:48:15;;;;;;;1.47;1.47;;;;;;;;;;5049400;28;20222;-65
2024/01/20 10:50:46;;;;;;;0.50;0.50;;;;;;;;;;5049551;28;20160;-67
2024/01/20 10:53:11;;;;;;;0.60;0.60;;;;;;;;;;5047383;28;20213;-67
2024/01/20 10:55:38;;;;;;;0.50;0.50;;;;;;;;;;5049324;28;20171;-67
2024/01/20 10:58:05;;;;;;;1.20;1.10;;;;;;;;;;5049326;28;20242;-67
2024/01/20 11:00:30;;;;;;;2.17;2.07;;;;;;;;;;5049317;28;20170;-68
2024/01/20 11:02:56;;;;;;;1.07;1.07;;;;;;;;;;5049210;28;20175;-67
2024/01/20 11:05:22;;;;;;;1.33;1.07;;;;;;;;;;5049296;28;20159;-67
2024/01/20 11:07:57;;;;;;;0.60;0.60;;;;;;;;;;5045930;28;20195;-67
2024/01/20 11:10:23;;;;;;;0.60;0.60;;;;;;;;;;5048715;28;20598;-67
2024/01/20 11:12:58;;;;;;;0.60;0.60;;;;;;;;;;5048437;28;20596;-67
2024/01/20 11:15:27;;;;;;;0.73;0.73;;;;;;;;;;5047961;28;20220;-67
2024/01/20 11:17:52;;;;;;;0.53;0.53;;;;;;;;;;5049736;28;20201;-67
2024/01/20 11:20:17;;;;;;;0.83;0.83;;;;;;;;;;5050927;28;20593;-67
2024/01/20 11:22:44;;;;;;;17.90;2.70;;;;;;;;;;5052099;28;20231;-67
2024/01/20 11:25:10;;;;;;;0.80;0.80;;;;;;;;;;5051148;28;20178;-67
2024/01/20 11:27:45;;;;;;;0.70;0.70;;;;;;;;;;5049867;28;20178;-67
2024/01/20 11:30:10;;;;;;;1.23;1.23;;;;;;;;;;5050168;28;20166;-67
2024/01/20 11:32:36;;;;;;;0.80;0.80;;;;;;;;;;5052298;28;20171;-67
2024/01/20 11:35:03;;;;;;;1.47;1.03;;;;;;;;;;5052342;28;20191;-67
2024/01/20 11:37:30;;;;;;;7.83;1.43;;;;;;;;;;5052675;28;20159;-67
2024/01/20 11:40:05;;;;;;;0.97;0.97;;;;;;;;;;5052068;28;20252;-67
2024/01/20 11:42:33;;;;;;;0.83;0.83;;;;;;;;;;5052323;28;20201;-67
2024/01/20 11:44:59;;;;;;;1.17;0.97;;;;;;;;;;5052601;28;20167;-68
2024/01/20 11:47:24;;;;;;;1.37;1.37;;;;;;;;;;5052450;28;20163;-68
2024/01/20 11:49:54;;;;;;;0.50;0.50;;;;;;;;;;5052520;28;20159;-68
2024/01/20 11:52:19;;;;;;;4.43;2.17;;;;;;;;;;5052590;28;20167;-67
2024/01/20 11:54:45;;;;;;;1.20;1.03;;;;;;;;;;5052460;28;20171;-68
2024/01/20 11:57:11;;;;;;;1.57;1.47;;;;;;;;;;5052401;28;20170;-69
2024/01/20 11:59:36;;;;;;;0.50;0.50;;;;;;;;;;5052386;28;20163;-68
2024/01/20 12:02:02;;;;;;;0.60;0.60;;;;;;;;;;5052348;28;20225;-68
2024/01/20 12:04:28;;;;;;;0.60;0.60;;;;;;;;;;5052365;28;20540;-68
2024/01/20 12:06:53;;;;;;;0.60;0.60;;;;;;;;;;5052099;28;20677;-68
2024/01/20 12:09:18;;;;;;;0.50;0.50;;;;;;;;;;5052192;28;20192;-68
2024/01/20 12:11:44;;;;;;;0.50;0.50;;;;;;;;;;5052100;28;20163;-68
2024/01/20 12:14:10;;;;;;;0.60;0.60;;;;;;;;;;5052316;28;20175;-67
2024/01/20 12:16:36;;;;;;;0.87;0.87;;;;;;;;;;5052140;28;20163;-67
2024/01/20 12:19:01;;;;;;;0.60;0.60;;;;;;;;;;5052215;28;20164;-68
2024/01/20 12:21:27;;;;;;;0.50;0.50;;;;;;;;;;5051876;28;20171;-67
2024/01/20 12:23:53;;;;;;;0.60;0.60;;;;;;;;;;5051828;28;20620;-68
2024/01/20 12:26:18;;;;;;;0.50;0.50;;;;;;;;;;5051609;28;20246;-67
2024/01/20 12:28:46;;;;;;;2.20;1.83;;;;;;;;;;5051144;28;20201;-67
2024/01/20 12:31:12;;;;;;;0.60;0.60;;;;;;;;;;5051700;28;20186;-68
2024/01/20 12:33:37;;;;;;;0.70;0.70;;;;;;;;;;5051488;28;20257;-68
2024/01/20 12:36:03;;;;;;;1.33;1.33;;;;;;;;;;5051569;28;20246;-67
2024/01/20 12:38:28;;;;;;;1.67;1.30;;;;;;;;;;5051586;28;20656;-68
2024/01/20 12:40:53;;;;;;;6.23;5.93;;;;;;;;;;5051288;28;20246;-67
2024/01/20 12:43:19;;;;;;;0.50;0.50;;;;;;;;;;5051398;28;20790;-68
2024/01/20 12:45:44;;;;;;;0.50;0.50;;;;;;;;;;5051387;28;20160;-68
2024/01/20 12:48:09;;;;;;;0.50;0.50;;;;;;;;;;5051290;28;20250;-68
2024/01/20 12:50:34;;;;;;;12.83;11.23;;;;;;;;;;5051341;28;20247;-68
2024/01/20 12:53:00;;;;;;;1.77;1.67;;;;;;;;;;5051446;28;20228;-68
2024/01/20 12:55:25;;;;;;;0.50;0.50;;;;;;;;;;5051129;28;20167;-67
2024/01/20 12:57:51;;;;;;;0.80;0.80;;;;;;;;;;5051180;28;20162;-67
2024/01/20 13:00:18;;;;;;;0.87;0.87;;;;;;;;;;5051016;28;20193;-67
2024/01/20 13:02:44;;;;;;;0.50;0.50;;;;;;;;;;5048300;28;20182;-68
2024/01/20 13:05:09;;;;;;;0.93;0.93;;;;;;;;;;5049833;28;20148;-68
2024/01/20 13:07:34;;;;;;;2.97;2.77;;;;;;;;;;5050437;28;20260;-68
2024/01/20 13:09:59;;;;;;;1.30;1.30;;;;;;;;;;5050262;28;20152;-68
2024/01/20 13:12:25;;;;;;;0.60;0.60;;;;;;;;;;5050626;28;20163;-67
2024/01/20 13:14:50;;;;;;;0.40;0.40;;;;;;;;;;5050761;28;20647;-68
2024/01/20 13:17:15;;;;;;;0.60;0.60;;;;;;;;;;5046116;28;20178;-68
2024/01/20 13:19:41;;;;;;;0.50;0.50;;;;;;;;;;5039577;28;20207;-68
2024/01/20 13:22:06;;;;;;;24.50;19.23;;;;;;;;;;5030693;28;20558;-68
2024/01/20 13:24:31;;;;;;;0.50;0.50;;;;;;;;;;5030847;28;20236;-68
2024/01/20 13:26:57;;;;;;;0.67;0.67;;;;;;;;;;5031083;28;20270;-67
2024/01/20 13:29:22;;;;;;;1.10;1.10;;;;;;;;;;5030772;28;20172;-68
2024/01/20 13:31:48;;;;;;;0.50;0.50;;;;;;;;;;5030615;28;20215;-68
2024/01/20 13:34:13;;;;;;;0.53;0.53;;;;;;;;;;5030703;28;20636;-68
2024/01/20 13:36:38;;;;;;;5.80;2.60;;;;;;;;;;5030515;28;20167;-68
2024/01/20 13:39:04;;;;;;;0.50;0.50;;;;;;;;;;5030672;28;20233;-68
2024/01/20 13:41:31;;;;;;;0.50;0.50;;;;;;;;;;5029575;28;20735;-68
2024/01/20 13:43:57;;;;;;;0.50;0.50;;;;;;;;;;5030363;28;20218;-68
2024/01/20 13:46:22;;;;;;;0.50;0.50;;;;;;;;;;5030605;28;20656;-68
2024/01/20 13:48:48;;;;;;;0.50;0.50;;;;;;;;;;5030654;28;20539;-68
2024/01/20 13:51:14;;;;;;;0.50;0.50;;;;;;;;;;5030611;28;20175;-68
2024/01/20 13:53:39;;;;;;;1.70;1.70;;;;;;;;;;5030576;28;20655;-68
2024/01/20 13:56:04;;;;;;;7.23;6.83;;;;;;;;;;5030667;28;20191;-68
2024/01/20 13:58:29;;;;;;;0.60;0.60;;;;;;;;;;5030533;28;20723;-68
2024/01/20 14:00:55;;;;;;;1.50;1.43;;;;;;;;;;5030590;28;20151;-66
2024/01/20 14:03:20;;;;;;;1.10;1.10;;;;;;;;;;5030553;28;20183;-66
2024/01/20 14:05:48;;;;;;;0.50;0.50;;;;;;;;;;5030488;28;20160;-68
2024/01/20 14:08:13;;;;;;;1.10;1.10;;;;;;;;;;5030450;28;20214;-68
2024/01/20 14:10:39;;;;;;;0.50;0.50;;;;;;;;;;5030361;28;20614;-68
2024/01/20 14:13:04;;;;;;;0.50;0.50;;;;;;;;;;5030429;28;20226;-68
2024/01/20 14:15:30;;;;;;;0.50;0.50;;;;;;;;;;5030279;28;20618;-66
2024/01/20 14:17:55;;;;;;;0.60;0.60;;;;;;;;;;5030191;28;20164;-68
2024/01/20 14:20:20;;;;;;;0.60;0.60;;;;;;;;;;5030389;28;20166;-68
2024/01/20 14:22:46;;;;;;;0.50;0.50;;;;;;;;;;5030195;28;20203;-68
2024/01/20 14:25:13;;;;;;;0.50;0.50;;;;;;;;;;5030019;28;20148;-67
2024/01/20 14:27:39;;;;;;;0.60;0.60;;;;;;;;;;5030290;28;20152;-68
2024/01/20 14:30:06;;;;;;;0.43;0.43;;;;;;;;;;5030348;28;20780;-68
2024/01/20 14:32:31;;;;;;;0.50;0.50;;;;;;;;;;5030297;28;20222;-66